Time;durP1;ratioP1;P1;durP2;ratioP2;P2;SDS_P1;SDS_P2;PMS_P1;PMS_P2;Temp;Humidity;BMP_temperature;BMP_pressure;BME280_temperature;BME280_humidity;BME280_pressure;Samples;Min_cycle;Max_cycle;Signal;HPM_P1;HPM_P2
2023/04/25 00:02:20;;;;;;;;;2.00;1.00;;;;;16.41;72.05;100316.66;5079378;28;45511;-73
2023/04/25 00:04:48;;;;;;;;;2.00;2.00;;;;;16.49;71.66;100317.53;5077789;28;45485;-74
2023/04/25 00:07:14;;;;;;;;;2.00;2.00;;;;;16.42;71.73;100314.03;5077635;28;47665;-74
2023/04/25 00:09:39;;;;;;;;;0.00;0.00;;;;;16.43;72.69;100322.81;5078721;27;45514;-81
2023/04/25 00:12:05;;;;;;;;;1.00;1.00;;;;;16.44;73.28;100333.38;5078048;28;45630;-74
2023/04/25 00:14:33;;;;;;;;;2.00;1.33;;;;;16.47;73.34;100335.13;5079206;28;45222;-78
2023/04/25 00:17:00;;;;;;;;;1.00;1.00;;;;;16.40;73.55;100320.19;5078296;28;45669;-76
2023/04/25 00:19:28;;;;;;;;;1.00;1.00;;;;;16.35;73.61;100319.28;5077721;28;45796;-81
2023/04/25 00:21:56;;;;;;;;;1.00;1.00;;;;;16.46;73.89;100328.97;5078271;28;45180;-75
2023/04/25 00:24:22;;;;;;;;;1.00;1.00;;;;;16.45;73.74;100327.22;5073105;28;45612;-82
2023/04/25 00:26:47;;;;;;;;;1.00;1.00;;;;;16.46;73.36;100338.66;5088316;27;46801;-82
2023/04/25 00:29:13;;;;;;;;;0.67;0.00;;;;;16.39;73.02;100318.41;5079097;27;45475;-81
2023/04/25 00:31:38;;;;;;;;;1.00;1.00;;;;;16.33;72.65;100308.72;5078195;28;45492;-79
2023/04/25 00:34:04;;;;;;;;;1.00;1.00;;;;;16.40;72.88;100323.69;5077889;27;46280;-77
2023/04/25 00:36:30;;;;;;;;;1.00;1.00;;;;;16.50;72.88;100330.75;5077083;28;45503;-81
2023/04/25 00:38:56;;;;;;;;;1.00;1.00;;;;;16.50;72.07;100325.47;5078582;28;46209;-74
2023/04/25 00:41:22;;;;;;;;;1.33;1.33;;;;;16.43;72.78;100321.06;5078394;28;45429;-75
2023/04/25 00:43:49;;;;;;;;;1.00;1.00;;;;;16.47;73.22;100325.47;5065721;28;45540;-81
2023/04/25 00:46:14;;;;;;;;;1.00;1.00;;;;;16.47;72.93;100320.22;5090542;27;45659;-75
2023/04/25 00:48:40;;;;;;;;;0.00;0.00;;;;;16.55;73.34;100332.50;5078719;27;45410;-74
2023/04/25 00:51:06;;;;;;;;;1.00;1.00;;;;;16.32;72.68;100295.56;5078482;28;45550;-76
2023/04/25 00:53:32;;;;;;;;;1.00;1.00;;;;;16.43;72.27;100301.72;5073296;28;45520;-77
2023/04/25 00:55:58;;;;;;;;;2.00;1.00;;;;;16.57;72.34;100325.47;5073689;28;46424;-81
2023/04/25 00:58:24;;;;;;;;;1.00;1.00;;;;;16.41;72.34;100300.84;5078349;28;45453;-75
2023/04/25 01:00:51;;;;;;;;;1.33;1.00;;;;;16.45;71.81;100302.59;5077169;28;45421;-80
2023/04/25 01:03:19;;;;;;;;;2.00;1.00;;;;;16.55;71.84;100319.31;5078260;27;45436;-74
2023/04/25 01:05:46;;;;;;;;;1.00;1.00;;;;;16.52;72.60;100322.84;5078233;28;46690;-81
2023/04/25 01:08:13;;;;;;;;;3.00;1.67;;;;;16.35;72.87;100298.19;5077384;28;45308;-81
2023/04/25 01:10:39;;;;;;;;;1.00;1.00;;;;;16.37;72.50;100297.31;5076962;28;45337;-82
2023/04/25 01:13:05;;;;;;;;;1.00;1.00;;;;;16.39;72.95;100298.19;5078483;28;45440;-81
2023/04/25 01:15:30;;;;;;;;;2.00;1.00;;;;;16.29;72.83;100281.50;5078588;27;45415;-82
2023/04/25 01:17:57;;;;;;;;;0.33;0.33;;;;;16.40;73.09;100297.34;5076802;28;45373;-76
2023/04/25 01:20:24;;;;;;;;;2.00;2.00;;;;;16.34;73.16;100296.44;5078420;28;45414;-81
2023/04/25 01:22:53;;;;;;;;;1.00;1.00;;;;;16.36;72.82;100294.69;5068782;28;45646;-78
2023/04/25 01:25:20;;;;;;;;;0.00;0.00;;;;;16.35;72.98;100287.66;5070784;28;46752;-81
2023/04/25 01:27:46;;;;;;;;;1.33;1.00;;;;;16.44;72.78;100290.31;5076121;28;45459;-73
2023/04/25 01:30:13;;;;;;;;;2.00;2.00;;;;;16.39;73.70;100287.66;5078545;28;45543;-81
2023/04/25 01:32:40;;;;;;;;;1.00;1.00;;;;;16.24;74.35;100263.91;5078030;28;45551;-80
2023/04/25 01:35:11;;;;;;;;;1.33;1.33;;;;;16.24;74.19;100270.06;5077803;28;45561;-81
2023/04/25 01:37:38;;;;;;;;;1.00;1.00;;;;;16.34;74.27;100278.88;5077525;28;45621;-74
2023/04/25 01:40:07;;;;;;;;;2.67;2.00;;;;;16.33;73.88;100286.75;5078069;28;45479;-74
2023/04/25 01:42:34;;;;;;;;;2.00;2.00;;;;;16.37;73.34;100281.50;5078182;28;45342;-77
2023/04/25 01:45:00;;;;;;;;;2.00;1.67;;;;;16.38;73.04;100270.09;5077546;28;46397;-81
2023/04/25 01:47:26;;;;;;;;;1.00;1.00;;;;;16.25;73.12;100241.94;5060230;28;45385;-82
2023/04/25 01:49:51;;;;;;;;;3.00;2.00;;;;;16.33;73.68;100253.38;5077792;28;45328;-78
2023/04/25 01:52:17;;;;;;;;;1.00;1.00;;;;;16.28;73.88;100245.47;5077278;27;45461;-73
2023/04/25 01:54:44;;;;;;;;;1.00;1.00;;;;;16.35;74.26;100264.78;5077687;28;46301;-74
2023/04/25 01:57:13;;;;;;;;;1.00;1.00;;;;;16.36;73.94;100256.03;5076769;28;45313;-83
2023/04/25 01:59:40;;;;;;;;;1.67;1.00;;;;;16.35;73.83;100253.38;5069341;28;45333;-82
2023/04/25 02:02:06;;;;;;;;;3.00;2.00;;;;;16.34;73.57;100246.38;5070194;28;45426;-83
2023/04/25 02:04:32;;;;;;;;;2.00;1.00;;;;;16.30;73.65;100229.66;5075990;28;46290;-82
2023/04/25 02:06:58;;;;;;;;;2.00;2.00;;;;;16.38;73.82;100249.00;5076334;28;45580;-74
2023/04/25 02:09:23;;;;;;;;;1.33;1.33;;;;;16.30;74.62;100235.81;5077062;27;45440;-79
2023/04/25 02:11:49;;;;;;;;;1.00;0.00;;;;;16.39;74.15;100256.00;5077219;27;45472;-79
2023/04/25 02:14:15;;;;;;;;;1.67;1.67;;;;;16.24;74.92;100235.78;5077052;28;46189;-82
2023/04/25 02:16:40;;;;;;;;;1.00;1.00;;;;;16.29;75.45;100244.59;5076510;28;45345;-77
2023/04/25 02:19:06;;;;;;;;;1.00;1.00;;;;;16.28;75.96;100248.09;5076614;28;45420;-82
2023/04/25 02:21:32;;;;;;;;;1.00;1.00;;;;;16.28;75.58;100250.72;5066340;28;45789;-75
2023/04/25 02:23:58;;;;;;;;;1.67;1.00;;;;;16.30;75.25;100245.47;5071133;28;45293;-82
2023/04/25 02:26:24;;;;;;;;;1.00;1.00;;;;;16.22;76.53;100244.59;5076465;28;46121;-75
2023/04/25 02:28:50;;;;;;;;;1.00;1.00;;;;;16.28;75.92;100247.22;5071959;28;45423;-75
2023/04/25 02:31:16;;;;;;;;;2.33;1.67;;;;;16.15;76.38;100232.25;5066743;28;45452;-83
2023/04/25 02:33:41;;;;;;;;;2.00;1.00;;;;;16.23;76.45;100248.97;5076495;28;45555;-82
2023/04/25 02:36:07;;;;;;;;;1.00;1.00;;;;;16.22;76.34;100250.72;5075427;28;45687;-82
2023/04/25 02:38:32;;;;;;;;;1.00;1.00;;;;;16.11;76.32;100228.72;5074504;28;45518;-76
2023/04/25 02:40:58;;;;;;;;;1.00;1.00;;;;;16.17;76.42;100234.00;5076130;28;45446;-82
2023/04/25 02:43:23;;;;;;;;;2.67;2.00;;;;;16.17;76.36;100230.50;5075974;27;45412;-74
2023/04/25 02:45:49;;;;;;;;;1.67;1.00;;;;;16.22;76.41;100232.28;5075662;28;45392;-74
2023/04/25 02:48:14;;;;;;;;;1.00;1.00;;;;;16.13;77.07;100215.56;5076631;28;45463;-75
2023/04/25 02:50:40;;;;;;;;;0.67;0.67;;;;;16.13;76.31;100220.84;5076865;28;45380;-74
2023/04/25 02:53:05;;;;;;;;;1.00;1.00;;;;;16.22;76.38;100227.00;5076513;27;45662;-83
2023/04/25 02:55:31;;;;;;;;;1.00;1.00;;;;;16.13;76.63;100210.28;5075883;27;45503;-82
2023/04/25 02:57:56;;;;;;;;;1.00;1.00;;;;;16.15;76.78;100211.16;5076574;28;45517;-75
2023/04/25 03:00:22;;;;;;;;;1.00;1.00;;;;;16.14;76.59;100207.66;5066533;28;45455;-75
2023/04/25 03:02:48;;;;;;;;;0.00;0.00;;;;;16.19;77.21;100215.56;5069812;28;46382;-83
2023/04/25 03:05:14;;;;;;;;;0.67;0.00;;;;;16.12;77.28;100195.38;5074588;28;45586;-77
2023/04/25 03:07:39;;;;;;;;;1.00;1.00;;;;;16.19;77.37;100211.16;5074849;28;45306;-74
2023/04/25 03:10:08;;;;;;;;;1.00;1.00;;;;;16.28;77.35;100227.00;5076337;28;45474;-83
2023/04/25 03:12:33;;;;;;;;;0.67;0.00;;;;;16.26;76.86;100220.84;5075767;27;46224;-75
2023/04/25 03:14:59;;;;;;;;;0.00;0.00;;;;;16.29;77.60;100222.59;5075694;28;45468;-82
2023/04/25 03:17:24;;;;;;;;;0.00;0.00;;;;;16.27;77.71;100220.00;5059479;28;45561;-75
2023/04/25 03:19:50;;;;;;;;;1.00;0.00;;;;;16.03;77.94;100180.41;5077003;28;45607;-80
2023/04/25 03:22:16;;;;;;;;;1.00;1.00;;;;;16.21;78.36;100213.81;5076546;28;45549;-75
2023/04/25 03:24:41;;;;;;;;;1.00;0.33;;;;;16.24;77.37;100209.44;5075910;27;45689;-75
2023/04/25 03:27:07;;;;;;;;;0.00;0.00;;;;;16.06;77.72;100180.44;5076263;28;45476;-82
2023/04/25 03:29:32;;;;;;;;;0.00;0.00;;;;;16.24;77.57;100213.84;5075640;27;45726;-78
2023/04/25 03:31:58;;;;;;;;;1.00;1.00;;;;;16.21;77.25;100204.16;5075706;28;45422;-79
2023/04/25 03:34:23;;;;;;;;;0.00;0.00;;;;;16.27;77.68;100212.09;5076270;28;45488;-80
2023/04/25 03:36:49;;;;;;;;;1.00;1.00;;;;;16.26;77.98;100212.09;5060097;28;45419;-82
2023/04/25 03:39:15;;;;;;;;;0.00;0.00;;;;;16.18;78.06;100206.78;5074730;28;45451;-80
2023/04/25 03:41:41;;;;;;;;;0.00;0.00;;;;;16.09;78.62;100194.50;5074399;28;47445;-79
2023/04/25 03:44:06;;;;;;;;;0.67;0.67;;;;;16.17;78.14;100197.13;5075678;28;45376;-80
2023/04/25 03:46:32;;;;;;;;;0.00;0.00;;;;;16.13;78.39;100190.09;5060250;28;45402;-82
2023/04/25 03:48:59;;;;;;;;;0.00;0.00;;;;;16.16;78.85;100208.53;5093569;27;45753;-81
2023/04/25 03:51:25;;;;;;;;;0.00;0.00;;;;;16.16;78.26;100213.81;5079014;28;45484;-79
2023/04/25 03:53:51;;;;;;;;;1.00;0.00;;;;;16.16;78.39;100205.91;5067249;28;45777;-74
2023/04/25 03:56:16;;;;;;;;;0.00;0.00;;;;;16.16;78.73;100205.91;5073505;28;45440;-76
2023/04/25 03:58:42;;;;;;;;;0.00;0.00;;;;;16.02;78.70;100179.53;5078843;28;45528;-81
2023/04/25 04:01:07;;;;;;;;;1.00;1.00;;;;;16.21;79.13;100212.06;5078715;28;46544;-79
2023/04/25 04:03:35;;;;;;;;;0.00;0.00;;;;;16.24;78.88;100214.72;5078928;28;45424;-81
2023/04/25 04:06:03;;;;;;;;;0.00;0.00;;;;;16.16;79.46;100194.50;5064057;28;45375;-77
2023/04/25 04:08:29;;;;;;;;;0.00;0.00;;;;;16.06;79.00;100176.03;5077708;28;45307;-74
2023/04/25 04:10:55;;;;;;;;;0.67;0.00;;;;;16.20;79.13;100193.63;5079017;28;45497;-79
2023/04/25 04:13:20;;;;;;;;;0.00;0.00;;;;;16.15;79.40;100185.69;5077816;28;45542;-80
2023/04/25 04:15:46;;;;;;;;;0.00;0.00;;;;;16.19;78.97;100186.59;5077948;28;45323;-73
2023/04/25 04:18:11;;;;;;;;;0.67;0.67;;;;;16.16;79.31;100174.28;5077369;28;45214;-76
2023/04/25 04:20:37;;;;;;;;;0.33;0.00;;;;;16.21;79.04;100183.06;5076896;28;47236;-73
2023/04/25 04:23:02;;;;;;;;;0.00;0.00;;;;;16.20;79.03;100185.72;5077269;28;45569;-73
2023/04/25 04:25:28;;;;;;;;;0.67;0.00;;;;;16.28;79.21;100205.06;5078796;28;45437;-75
2023/04/25 04:27:54;;;;;;;;;0.00;0.00;;;;;16.30;79.28;100205.94;5078808;27;45415;-73
2023/04/25 04:30:24;;;;;;;;;0.00;0.00;;;;;16.29;79.63;100206.78;5078816;28;47723;-75
2023/04/25 04:32:51;;;;;;;;;0.00;0.00;;;;;16.29;79.69;100204.16;5078549;27;45387;-80
2023/04/25 04:35:17;;;;;;;;;0.33;0.00;;;;;16.22;79.73;100195.38;5078758;27;45804;-80
2023/04/25 04:37:43;;;;;;;;;0.00;0.00;;;;;16.28;79.53;100195.38;5078857;28;45374;-74
2023/04/25 04:40:09;;;;;;;;;0.00;0.00;;;;;16.27;79.83;100201.53;5071526;28;46259;-73
2023/04/25 04:42:36;;;;;;;;;0.33;0.33;;;;;16.19;80.29;100192.72;5083841;27;45542;-79
2023/04/25 04:45:02;;;;;;;;;1.00;0.00;;;;;16.24;80.32;100193.63;5078800;28;45592;-80
2023/04/25 04:47:31;;;;;;;;;1.00;0.00;;;;;16.16;80.58;100178.69;5077219;28;45475;-82
2023/04/25 04:49:57;;;;;;;;;0.00;0.00;;;;;16.20;80.69;100172.53;5072439;28;46647;-74
2023/04/25 04:52:22;;;;;;;;;0.00;0.00;;;;;16.16;80.36;100178.69;5078704;27;45582;-81
2023/04/25 04:54:48;;;;;;;;;0.67;0.00;;;;;16.22;80.38;100189.25;5076961;28;45501;-81
2023/04/25 04:57:13;;;;;;;;;0.67;0.33;;;;;16.23;80.80;100196.25;5078404;28;45541;-81
2023/04/25 04:59:39;;;;;;;;;0.00;0.00;;;;;16.14;80.76;100181.31;5077813;28;45417;-77
2023/04/25 05:02:05;;;;;;;;;0.00;0.00;;;;;16.19;80.93;100189.22;5077796;28;45267;-78
2023/04/25 05:04:30;;;;;;;;;1.00;1.00;;;;;16.26;80.84;100201.53;5076589;28;45357;-80
2023/04/25 05:06:56;;;;;;;;;0.00;0.00;;;;;16.23;80.69;100190.97;5078170;28;45501;-81
2023/04/25 05:09:25;;;;;;;;;0.00;0.00;;;;;16.20;80.11;100188.34;5076177;28;45681;-78
2023/04/25 05:11:51;;;;;;;;;0.00;0.00;;;;;16.25;80.50;100199.75;5077888;28;45469;-74
2023/04/25 05:14:17;;;;;;;;;0.67;0.00;;;;;16.34;80.06;100207.69;5077046;28;45636;-73
2023/04/25 05:16:43;;;;;;;;;0.33;0.00;;;;;16.26;80.33;100202.41;5076561;27;45663;-82
2023/04/25 05:19:09;;;;;;;;;0.00;0.00;;;;;16.23;80.37;100197.13;5076810;28;46066;-81
2023/04/25 05:21:35;;;;;;;;;0.00;0.00;;;;;15.82;80.31;100123.31;5077514;28;45434;-79
2023/04/25 05:24:01;;;;;;;;;0.00;0.00;;;;;16.33;80.41;100213.81;5077841;27;45692;-78
2023/04/25 05:26:30;;;;;;;;;0.00;0.00;;;;;16.25;80.91;100205.03;5078423;28;45380;-79
2023/04/25 05:28:57;;;;;;;;;1.00;1.00;;;;;16.31;80.95;100220.84;5078080;27;45483;-82
2023/04/25 05:31:22;;;;;;;;;0.00;0.00;;;;;16.35;80.82;100225.25;5091026;27;45595;-76
2023/04/25 05:33:48;;;;;;;;;0.67;0.67;;;;;16.23;80.92;100209.44;5077392;28;45241;-77
2023/04/25 05:36:13;;;;;;;;;1.00;1.00;;;;;16.34;80.98;100236.69;5078002;28;45367;-83
2023/04/25 05:38:39;;;;;;;;;0.67;0.67;;;;;16.36;80.67;100241.97;5110402;27;47224;-83
2023/04/25 05:41:04;;;;;;;;;0.00;0.00;;;;;16.27;80.83;100219.09;5075618;28;45306;-75
2023/04/25 05:43:30;;;;;;;;;1.67;0.00;;;;;16.33;79.96;100218.22;5078076;27;45447;-74
2023/04/25 05:45:55;;;;;;;;;1.00;1.00;;;;;16.28;79.95;100211.19;5078228;28;45305;-83
2023/04/25 05:48:21;;;;;;;;;1.00;1.00;;;;;16.33;80.47;100229.66;5077173;27;45601;-84
2023/04/25 05:50:46;;;;;;;;;1.33;1.00;;;;;16.16;81.02;100210.31;5076049;27;45507;-75
2023/04/25 05:53:12;;;;;;;;;0.00;0.00;;;;;15.80;80.73;100154.03;5077701;28;45362;-74
2023/04/25 05:55:38;;;;;;;;;0.00;0.00;;;;;16.28;80.73;100241.97;5076145;28;45653;-78
2023/04/25 05:58:05;;;;;;;;;2.00;1.67;;;;;16.28;80.84;100244.59;5077131;27;46344;-79
2023/04/25 06:00:30;;;;;;;;;0.67;0.67;;;;;16.28;80.05;100237.56;5077430;28;45396;-77
2023/04/25 06:02:56;;;;;;;;;0.00;0.00;;;;;16.21;80.28;100227.88;5075829;28;45235;-83
2023/04/25 06:05:21;;;;;;;;;0.33;0.33;;;;;16.29;80.25;100233.16;5069107;28;45706;-79
2023/04/25 06:07:47;;;;;;;;;0.00;0.00;;;;;16.30;80.31;100238.44;5068249;28;46425;-74
2023/04/25 06:10:12;;;;;;;;;0.00;0.00;;;;;16.36;80.19;100256.03;5059922;28;45261;-84
2023/04/25 06:12:38;;;;;;;;;0.00;0.00;;;;;16.37;80.26;100248.97;5075203;27;45529;-81
2023/04/25 06:15:05;;;;;;;;;0.33;0.33;;;;;16.41;80.21;100261.28;5076873;28;45433;-77
2023/04/25 06:17:30;;;;;;;;;0.33;0.00;;;;;16.44;80.87;100270.09;5077429;28;45424;-74
2023/04/25 06:19:56;;;;;;;;;0.67;0.67;;;;;16.36;79.83;100250.75;5075948;27;45344;-83
2023/04/25 06:22:21;;;;;;;;;0.00;0.00;;;;;16.45;80.07;100252.50;5076330;28;45488;-76
2023/04/25 06:24:47;;;;;;;;;0.00;0.00;;;;;16.49;79.41;100260.44;5075738;27;45573;-73
2023/04/25 06:27:12;;;;;;;;;0.00;0.00;;;;;16.53;79.53;100263.06;5064832;28;46377;-76
2023/04/25 06:29:38;;;;;;;;;1.00;1.00;;;;;16.52;79.64;100254.28;5073793;28;45265;-81
2023/04/25 06:32:04;;;;;;;;;1.00;1.00;;;;;16.60;79.56;100259.56;5075412;27;45318;-81
2023/04/25 06:34:29;;;;;;;;;1.33;1.33;;;;;16.56;79.56;100244.63;5071214;28;47299;-80
2023/04/25 06:36:55;;;;;;;;;2.00;1.00;;;;;16.63;79.22;100246.38;5066919;28;45394;-81
2023/04/25 06:39:23;;;;;;;;;1.00;1.00;;;;;16.63;78.92;100255.19;5075578;27;45694;-81
2023/04/25 06:41:48;;;;;;;;;2.00;2.00;;;;;16.65;79.35;100257.78;5072516;28;45405;-80
2023/04/25 06:44:15;;;;;;;;;1.00;1.00;;;;;16.74;79.07;100278.91;5076037;28;46567;-72
2023/04/25 06:46:41;;;;;;;;;0.00;0.00;;;;;16.61;79.13;100251.66;5071871;28;45523;-80
2023/04/25 06:49:06;;;;;;;;;0.00;0.00;;;;;16.73;79.32;100252.53;5075997;28;45526;-79
2023/04/25 06:51:32;;;;;;;;;1.00;1.00;;;;;16.68;79.00;100232.31;5060467;28;46213;-79
2023/04/25 06:53:57;;;;;;;;;2.00;1.00;;;;;16.89;78.96;100270.13;5075440;27;45507;-81
2023/04/25 06:56:23;;;;;;;;;1.00;1.00;;;;;16.74;78.95;100228.78;5075283;28;45573;-81
2023/04/25 06:58:49;;;;;;;;;1.00;1.00;;;;;16.94;79.00;100252.56;5076131;28;45281;-80
2023/04/25 07:01:15;;;;;;;;;2.00;1.00;;;;;16.87;78.82;100241.16;5075718;28;45353;-81
2023/04/25 07:03:40;;;;;;;;;1.00;1.00;;;;;17.01;79.05;100256.97;5081889;27;45706;-80
2023/04/25 07:06:06;;;;;;;;;1.00;1.00;;;;;17.02;78.88;100252.56;5074973;28;46121;-81
2023/04/25 07:08:32;;;;;;;;;0.33;0.33;;;;;17.00;78.32;100257.81;5072229;28;45314;-81
2023/04/25 07:10:58;;;;;;;;;1.00;0.33;;;;;16.97;78.43;100239.38;5073838;28;45582;-81
2023/04/25 07:13:23;;;;;;;;;0.00;0.00;;;;;16.56;78.99;100173.44;5071392;28;45451;-74
2023/04/25 07:15:49;;;;;;;;;1.00;1.00;;;;;16.56;78.71;100174.31;5075113;27;45622;-80
2023/04/25 07:18:15;;;;;;;;;2.00;2.00;;;;;17.05;78.66;100253.44;5075827;28;45395;-80
2023/04/25 07:20:40;;;;;;;;;2.00;1.67;;;;;17.15;78.20;100261.31;5076142;27;45511;-75
2023/04/25 07:23:06;;;;;;;;;1.00;1.00;;;;;17.12;78.33;100264.84;5078631;27;45412;-77
2023/04/25 07:25:32;;;;;;;;;5.33;5.33;;;;;17.07;78.20;100242.88;5078060;28;45547;-72
2023/04/25 07:27:57;;;;;;;;;3.00;2.67;;;;;17.21;78.35;100278.06;5079174;27;45581;-73
2023/04/25 07:30:23;;;;;;;;;2.33;2.00;;;;;17.20;78.39;100268.34;5079215;27;45433;-72
2023/04/25 07:32:49;;;;;;;;;3.00;3.00;;;;;17.30;78.44;100280.66;5086325;27;45457;-79
2023/04/25 07:35:15;;;;;;;;;2.00;2.00;;;;;17.30;78.16;100270.09;5078443;27;45466;-73
2023/04/25 07:37:41;;;;;;;;;4.67;3.00;;;;;17.35;78.24;100283.31;5089569;27;45389;-72
2023/04/25 07:40:09;;;;;;;;;1.00;1.00;;;;;17.40;78.12;100272.72;5084076;27;45496;-74
2023/04/25 07:42:34;;;;;;;;;1.67;1.67;;;;;17.47;77.63;100274.47;5079084;28;45417;-75
2023/04/25 07:45:01;;;;;;;;;2.00;1.33;;;;;17.58;77.60;100285.00;5077353;28;45593;-79
2023/04/25 07:47:26;;;;;;;;;3.00;3.00;;;;;17.56;77.19;100279.72;5078762;28;45619;-80
2023/04/25 07:49:52;;;;;;;;;2.00;2.00;;;;;17.53;77.29;100278.84;5078793;28;45409;-72
2023/04/25 07:52:18;;;;;;;;;3.00;3.00;;;;;17.49;77.30;100272.72;5074959;28;45349;-80
2023/04/25 07:54:43;;;;;;;;;7.00;7.00;;;;;17.55;77.41;100275.34;5075832;28;48027;-72
2023/04/25 07:57:09;;;;;;;;;3.00;3.00;;;;;17.70;77.81;100290.25;5079275;27;45404;-73
2023/04/25 07:59:34;;;;;;;;;3.00;2.00;;;;;17.75;77.95;100295.53;5077924;28;45375;-76
2023/04/25 08:02:02;;;;;;;;;0.67;0.67;;;;;17.82;77.88;100295.47;5078921;27;45394;-77
2023/04/25 08:04:27;;;;;;;;;1.67;1.67;;;;;17.75;76.93;100274.41;5078183;28;45568;-77
2023/04/25 08:06:53;;;;;;;;;1.00;1.00;;;;;17.79;76.88;100287.59;5077787;28;45584;-80
2023/04/25 08:09:20;;;;;;;;;1.67;1.67;;;;;17.88;76.72;100284.91;5078438;27;45665;-82
2023/04/25 08:11:46;;;;;;;;;4.00;3.67;;;;;17.84;76.72;100269.09;5077764;28;45512;-80
2023/04/25 08:14:12;;;;;;;;;2.00;1.33;;;;;17.56;76.32;100221.63;5077119;27;46012;-81
2023/04/25 08:16:38;;;;;;;;;0.67;0.67;;;;;17.97;76.62;100291.06;5077454;27;45575;-73
2023/04/25 08:19:04;;;;;;;;;2.00;1.67;;;;;17.99;76.39;100295.47;5074584;28;45385;-73
2023/04/25 08:21:31;;;;;;;;;0.67;0.67;;;;;17.87;76.33;100275.25;5076888;28;45836;-71
2023/04/25 08:24:00;;;;;;;;;1.00;1.00;;;;;18.14;76.65;100301.56;5078339;28;45641;-76
2023/04/25 08:26:26;;;;;;;;;1.67;0.67;;;;;18.17;75.97;100304.19;5076500;27;45467;-72
2023/04/25 08:28:51;;;;;;;;;1.67;1.67;;;;;18.15;76.32;100293.63;5077792;27;45401;-73
2023/04/25 08:31:17;;;;;;;;;0.00;0.00;;;;;18.32;75.96;100309.38;5077810;27;45442;-73
2023/04/25 08:33:44;;;;;;;;;0.67;0.67;;;;;18.37;76.24;100304.09;5076830;27;46277;-73
2023/04/25 08:36:10;;;;;;;;;1.67;1.67;;;;;18.46;75.82;100294.34;5077589;27;45291;-73
2023/04/25 08:38:36;;;;;;;;;3.67;3.67;;;;;18.64;75.46;100308.31;5077800;27;45389;-74
2023/04/25 08:41:02;;;;;;;;;1.67;1.00;;;;;18.28;75.34;100262.69;5076281;28;45232;-73
2023/04/25 08:43:30;;;;;;;;;2.33;2.33;;;;;18.65;75.38;100310.06;5077271;28;46495;-75
2023/04/25 08:46:00;;;;;;;;;1.33;1.33;;;;;18.69;75.39;100322.38;5075262;28;46189;-73
2023/04/25 08:48:31;;;;;;;;;0.67;0.67;;;;;18.72;75.00;100325.03;5077634;28;45517;-73
2023/04/25 08:50:58;;;;;;;;;3.00;2.67;;;;;18.81;74.45;100334.69;5073982;28;45567;-73
2023/04/25 08:53:29;;;;;;;;;1.67;1.67;;;;;18.86;74.13;100339.06;5078109;27;45648;-73
2023/04/25 08:55:56;;;;;;;;;1.00;1.00;;;;;18.61;74.11;100288.03;5075271;28;45294;-74
2023/04/25 08:58:23;;;;;;;;;1.00;1.00;;;;;18.84;73.85;100337.31;5075961;28;45398;-74
2023/04/25 09:00:50;;;;;;;;;9.33;9.00;;;;;18.65;73.83;100289.78;5075998;28;45639;-74
2023/04/25 09:03:16;;;;;;;;;1.67;1.67;;;;;18.75;73.68;100295.88;5075625;28;48159;-71
2023/04/25 09:05:43;;;;;;;;;1.00;1.00;;;;;19.00;71.94;100324.81;5076915;28;45587;-73
2023/04/25 09:08:08;;;;;;;;;2.00;2.00;;;;;19.04;72.48;100321.28;5077173;27;45566;-73
2023/04/25 09:10:34;;;;;;;;;2.00;2.00;;;;;19.08;72.72;100321.25;5074412;28;45554;-73
2023/04/25 09:13:17;;;;;;;;;2.00;2.00;;;;;19.09;72.43;100319.47;5075869;27;47645;-73
2023/04/25 09:15:54;;;;;;;;;3.00;2.00;;;;;19.30;72.15;100341.34;5083262;27;45821;-73
2023/04/25 09:18:26;;;;;;;;;4.00;3.33;;;;;19.30;72.21;100336.94;5080456;27;45590;-72
2023/04/25 09:20:58;;;;;;;;;1.00;1.00;;;;;19.30;72.44;100339.59;5075988;27;45515;-71
2023/04/25 09:23:24;;;;;;;;;0.67;0.67;;;;;18.99;70.95;100337.19;5075437;28;45382;-72
2023/04/25 09:25:53;;;;;;;;;2.00;2.00;;;;;18.85;72.33;100332.00;5076049;28;45757;-73
2023/04/25 09:28:27;;;;;;;;;2.00;2.00;;;;;18.91;72.82;100348.75;5077401;27;45619;-71
2023/04/25 09:30:57;;;;;;;;;2.00;1.00;;;;;18.79;72.87;100350.56;5075312;28;45507;-72
2023/04/25 09:33:28;;;;;;;;;2.00;2.00;;;;;18.69;73.26;100349.72;5092992;27;45824;-72
2023/04/25 09:36:00;;;;;;;;;1.33;1.00;;;;;18.68;72.48;100355.00;5077230;27;45569;-79
2023/04/25 09:38:26;;;;;;;;;1.00;1.00;;;;;18.58;73.30;100348.03;5074654;28;45228;-74
2023/04/25 09:40:52;;;;;;;;;0.00;0.00;;;;;18.62;73.57;100350.66;5076957;28;45553;-75
2023/04/25 09:43:24;;;;;;;;;1.00;1.00;;;;;18.79;73.41;100365.53;5077509;27;45491;-75
2023/04/25 09:45:53;;;;;;;;;2.00;2.00;;;;;18.86;73.01;100351.41;5077168;27;45674;-77
2023/04/25 09:48:20;;;;;;;;;1.00;1.00;;;;;18.94;71.98;100343.41;5077455;27;45401;-74
2023/04/25 09:51:10;;;;;;;;;0.00;0.00;;;;;19.03;72.02;100338.06;5078064;27;46121;-75
2023/04/25 09:53:37;;;;;;;;;1.00;1.00;;;;;19.08;70.78;100331.84;5077686;27;46441;-74
2023/04/25 09:56:08;;;;;;;;;7.00;5.33;;;;;19.23;71.57;100349.34;5075755;28;45592;-75
2023/04/25 09:58:36;;;;;;;;;4.00;4.00;;;;;19.26;71.02;100338.75;5074180;28;45476;-73
2023/04/25 10:01:05;;;;;;;;;2.67;2.00;;;;;19.39;70.76;100346.56;5075845;28;45195;-76
2023/04/25 10:03:32;;;;;;;;;5.00;4.00;;;;;19.40;70.74;100354.50;5076535;27;45444;-73
2023/04/25 10:06:08;;;;;;;;;7.33;6.00;;;;;19.36;70.75;100370.41;5075079;28;45472;-73
2023/04/25 10:08:37;;;;;;;;;5.33;4.67;;;;;19.24;70.58;100382.91;5073939;28;45420;-76
2023/04/25 10:11:07;;;;;;;;;5.00;5.00;;;;;19.03;70.59;100370.69;5077180;27;45553;-75
2023/04/25 10:13:34;;;;;;;;;4.33;4.00;;;;;19.00;71.77;100380.41;5092920;27;46612;-76
2023/04/25 10:16:01;;;;;;;;;5.00;5.00;;;;;18.85;71.39;100349.66;5076983;28;45381;-75
2023/04/25 10:18:28;;;;;;;;;4.00;4.00;;;;;19.12;71.51;100379.44;5076891;27;45471;-75
2023/04/25 10:21:00;;;;;;;;;3.00;3.00;;;;;19.10;71.24;100381.22;5087542;27;45516;-75
2023/04/25 10:23:27;;;;;;;;;5.00;4.00;;;;;19.08;71.36;100378.63;5075970;27;45326;-76
2023/04/25 10:25:54;;;;;;;;;4.00;3.00;;;;;19.13;71.62;100387.38;5083560;27;45442;-75
2023/04/25 10:28:20;;;;;;;;;4.33;4.00;;;;;19.11;71.78;100386.53;5076170;27;46480;-75
2023/04/25 10:30:59;;;;;;;;;4.00;3.33;;;;;18.97;72.29;100393.69;5076185;27;45556;-75
2023/04/25 10:33:39;;;;;;;;;2.00;2.00;;;;;18.98;72.12;100391.03;5048941;28;47764;-75
2023/04/25 10:36:22;;;;;;;;;1.00;1.00;;;;;19.08;72.18;100395.38;5048813;28;45628;-76
2023/04/25 10:38:51;;;;;;;;;3.00;2.67;;;;;18.82;72.25;100378.78;5063251;28;45881;-76
2023/04/25 10:41:22;;;;;;;;;3.67;3.00;;;;;18.90;72.01;100379.63;5048510;28;45684;-77
2023/04/25 10:43:49;;;;;;;;;4.67;4.67;;;;;18.90;71.85;100386.66;5044666;28;47685;-77
2023/04/25 10:46:25;;;;;;;;;1.00;0.00;;;;;18.99;71.76;100379.53;5047261;28;45404;-77
2023/04/25 10:48:57;;;;;;;;;3.33;2.33;;;;;18.96;71.78;100374.28;5038902;28;45413;-76
2023/04/25 10:51:26;;;;;;;;;3.00;2.33;;;;;19.08;71.45;100390.06;5040997;28;45339;-73
2023/04/25 10:53:55;;;;;;;;;3.00;3.00;;;;;19.13;71.63;100384.75;5045057;28;48103;-73
2023/04/25 10:56:21;;;;;;;;;1.67;1.00;;;;;19.19;71.06;100382.03;5062237;28;45469;-77
2023/04/25 10:58:47;;;;;;;;;1.00;1.00;;;;;19.27;70.86;100364.31;5063671;28;45307;-75
2023/04/25 11:01:14;;;;;;;;;0.33;0.33;;;;;19.38;71.04;100352.78;5057738;28;45599;-75
2023/04/25 11:03:43;;;;;;;;;0.67;0.67;;;;;19.78;69.23;100366.53;5065997;28;45624;-75
2023/04/25 11:06:23;;;;;;;;;2.00;1.00;;;;;20.30;68.63;100359.72;5056895;28;45536;-73
2023/04/25 11:08:50;;;;;;;;;2.00;2.00;;;;;20.68;67.36;100366.31;5076123;28;45384;-77
2023/04/25 11:11:19;;;;;;;;;3.00;3.00;;;;;20.71;67.79;100339.72;5076896;28;45472;-74
2023/04/25 11:13:48;;;;;;;;;2.00;2.00;;;;;20.93;66.57;100339.38;5076714;28;45491;-73
2023/04/25 11:16:14;;;;;;;;;2.00;1.00;;;;;20.32;65.50;100156.31;5077245;28;45292;-77
2023/04/25 11:18:43;;;;;;;;;3.00;3.00;;;;;21.76;61.81;100329.97;5076675;28;45492;-76
2023/04/25 11:21:10;;;;;;;;;2.00;2.00;;;;;22.23;63.38;100321.03;5077145;28;45255;-75
2023/04/25 11:23:36;;;;;;;;;2.00;2.00;;;;;23.09;62.94;100341.31;5075883;28;46170;-73